sensor_id;sensor_type;location;lat;lon;timestamp;temperature;humidity
27745;DHT22;61387;48.112;8.616;2023-03-14T00:00:07;8.60;99.90
27745;DHT22;61387;48.112;8.616;2023-03-14T00:02:34;8.60;99.90
27745;DHT22;61387;48.112;8.616;2023-03-14T00:05:00;8.60;99.90
27745;DHT22;61387;48.112;8.616;2023-03-14T00:07:27;8.60;99.90
27745;DHT22;61387;48.112;8.616;2023-03-14T00:12:23;8.50;99.90
27745;DHT22;61387;48.112;8.616;2023-03-14T00:14:48;8.50;99.90
27745;DHT22;61387;48.112;8.616;2023-03-14T00:22:06;8.40;99.90
27745;DHT22;61387;48.112;8.616;2023-03-14T00:24:31;8.50;99.90
27745;DHT22;61387;48.112;8.616;2023-03-14T00:26:57;8.50;99.90
27745;DHT22;61387;48.112;8.616;2023-03-14T00:29:22;8.50;99.90
27745;DHT22;61387;48.112;8.616;2023-03-14T00:31:48;8.40;99.90
27745;DHT22;61387;48.112;8.616;2023-03-14T00:34:13;8.40;99.90
27745;DHT22;61387;48.112;8.616;2023-03-14T00:36:39;8.40;99.90
27745;DHT22;61387;48.112;8.616;2023-03-14T00:39:04;8.40;99.90
27745;DHT22;61387;48.112;8.616;2023-03-14T00:43:56;8.40;99.90
27745;DHT22;61387;48.112;8.616;2023-03-14T00:46:21;8.40;99.90
27745;DHT22;61387;48.112;8.616;2023-03-14T00:51:13;8.40;99.90
27745;DHT22;61387;48.112;8.616;2023-03-14T00:53:40;8.40;99.90
27745;DHT22;61387;48.112;8.616;2023-03-14T00:56:09;8.40;99.90
27745;DHT22;61387;48.112;8.616;2023-03-14T00:58:35;8.40;99.90
27745;DHT22;61387;48.112;8.616;2023-03-14T01:01:15;8.30;99.90
27745;DHT22;61387;48.112;8.616;2023-03-14T01:03:41;8.30;99.90
27745;DHT22;61387;48.112;8.616;2023-03-14T01:06:14;8.30;99.90
27745;DHT22;61387;48.112;8.616;2023-03-14T01:08:40;8.30;99.90
27745;DHT22;61387;48.112;8.616;2023-03-14T01:11:14;8.30;99.90
27745;DHT22;61387;48.112;8.616;2023-03-14T01:13:40;8.20;99.90
27745;DHT22;61387;48.112;8.616;2023-03-14T01:16:08;8.30;99.90
27745;DHT22;61387;48.112;8.616;2023-03-14T01:18:34;8.20;99.90
27745;DHT22;61387;48.112;8.616;2023-03-14T01:21:03;8.20;99.90
27745;DHT22;61387;48.112;8.616;2023-03-14T01:25:55;8.20;99.90
27745;DHT22;61387;48.112;8.616;2023-03-14T01:28:21;8.20;99.90
27745;DHT22;61387;48.112;8.616;2023-03-14T01:33:12;8.10;99.90
27745;DHT22;61387;48.112;8.616;2023-03-14T01:35:39;8.10;99.90
27745;DHT22;61387;48.112;8.616;2023-03-14T01:38:05;8.10;99.90
27745;DHT22;61387;48.112;8.616;2023-03-14T01:43:00;8.10;99.90
27745;DHT22;61387;48.112;8.616;2023-03-14T01:46:11;8.10;99.90
27745;DHT22;61387;48.112;8.616;2023-03-14T01:51:30;8.10;99.90
27745;DHT22;61387;48.112;8.616;2023-03-14T01:54:06;8.10;99.90
27745;DHT22;61387;48.112;8.616;2023-03-14T01:56:33;8.10;99.90
27745;DHT22;61387;48.112;8.616;2023-03-14T01:59:00;8.10;99.90
27745;DHT22;61387;48.112;8.616;2023-03-14T02:01:26;8.10;99.90
27745;DHT22;61387;48.112;8.616;2023-03-14T02:03:57;8.10;99.90
27745;DHT22;61387;48.112;8.616;2023-03-14T02:06:27;8.10;99.90
27745;DHT22;61387;48.112;8.616;2023-03-14T02:08:55;8.10;99.90
27745;DHT22;61387;48.112;8.616;2023-03-14T02:13:46;8.10;99.90
27745;DHT22;61387;48.112;8.616;2023-03-14T02:16:13;8.10;99.90
27745;DHT22;61387;48.112;8.616;2023-03-14T02:18:39;8.10;99.90
27745;DHT22;61387;48.112;8.616;2023-03-14T02:27:11;8.00;99.90
27745;DHT22;61387;48.112;8.616;2023-03-14T02:29:41;8.00;99.90
27745;DHT22;61387;48.112;8.616;2023-03-14T02:32:08;8.00;99.90
27745;DHT22;61387;48.112;8.616;2023-03-14T02:34:34;8.00;99.90
27745;DHT22;61387;48.112;8.616;2023-03-14T02:37:02;8.00;99.90
27745;DHT22;61387;48.112;8.616;2023-03-14T02:39:43;7.90;99.90
27745;DHT22;61387;48.112;8.616;2023-03-14T02:42:10;7.90;99.90
27745;DHT22;61387;48.112;8.616;2023-03-14T02:47:03;7.80;99.90
27745;DHT22;61387;48.112;8.616;2023-03-14T02:49:32;7.80;99.90
27745;DHT22;61387;48.112;8.616;2023-03-14T02:54:24;7.80;99.90
27745;DHT22;61387;48.112;8.616;2023-03-14T02:56:50;7.80;99.90
27745;DHT22;61387;48.112;8.616;2023-03-14T02:59:15;7.80;99.90
27745;DHT22;61387;48.112;8.616;2023-03-14T03:01:41;7.70;99.90
27745;DHT22;61387;48.112;8.616;2023-03-14T03:04:06;7.70;99.90
27745;DHT22;61387;48.112;8.616;2023-03-14T03:06:32;7.70;99.90
27745;DHT22;61387;48.112;8.616;2023-03-14T03:08:57;7.60;99.90
27745;DHT22;61387;48.112;8.616;2023-03-14T03:11:23;7.60;99.90
27745;DHT22;61387;48.112;8.616;2023-03-14T03:13:48;7.60;99.90
27745;DHT22;61387;48.112;8.616;2023-03-14T03:16:14;7.50;99.90
27745;DHT22;61387;48.112;8.616;2023-03-14T03:18:40;7.40;99.90
27745;DHT22;61387;48.112;8.616;2023-03-14T03:21:06;7.40;99.90
27745;DHT22;61387;48.112;8.616;2023-03-14T03:23:34;7.40;99.90
27745;DHT22;61387;48.112;8.616;2023-03-14T03:28:25;7.30;99.90
27745;DHT22;61387;48.112;8.616;2023-03-14T03:30:51;7.30;99.90
27745;DHT22;61387;48.112;8.616;2023-03-14T03:33:16;7.30;99.90
27745;DHT22;61387;48.112;8.616;2023-03-14T03:35:47;7.30;99.90
27745;DHT22;61387;48.112;8.616;2023-03-14T03:38:14;7.20;99.90
27745;DHT22;61387;48.112;8.616;2023-03-14T03:40:40;7.20;99.90
27745;DHT22;61387;48.112;8.616;2023-03-14T03:43:06;7.20;99.90
27745;DHT22;61387;48.112;8.616;2023-03-14T03:45:31;7.20;99.90
27745;DHT22;61387;48.112;8.616;2023-03-14T03:47:57;7.20;99.90
27745;DHT22;61387;48.112;8.616;2023-03-14T03:50:22;7.20;99.90
27745;DHT22;61387;48.112;8.616;2023-03-14T03:52:48;7.20;99.90
27745;DHT22;61387;48.112;8.616;2023-03-14T03:55:13;7.30;99.90
27745;DHT22;61387;48.112;8.616;2023-03-14T04:00:06;7.30;99.90
27745;DHT22;61387;48.112;8.616;2023-03-14T04:09:52;7.50;99.90
27745;DHT22;61387;48.112;8.616;2023-03-14T04:12:17;7.50;99.90
27745;DHT22;61387;48.112;8.616;2023-03-14T04:14:43;7.50;99.90
27745;DHT22;61387;48.112;8.616;2023-03-14T04:19:34;7.50;99.90
27745;DHT22;61387;48.112;8.616;2023-03-14T04:22:00;7.50;99.90
27745;DHT22;61387;48.112;8.616;2023-03-14T04:24:25;7.50;99.90
27745;DHT22;61387;48.112;8.616;2023-03-14T04:29:17;7.60;99.90
27745;DHT22;61387;48.112;8.616;2023-03-14T04:31:43;7.50;99.90
27745;DHT22;61387;48.112;8.616;2023-03-14T04:36:34;7.60;99.90
27745;DHT22;61387;48.112;8.616;2023-03-14T04:39:00;7.60;99.90
27745;DHT22;61387;48.112;8.616;2023-03-14T04:41:26;7.60;99.90
27745;DHT22;61387;48.112;8.616;2023-03-14T04:43:51;7.60;99.90
27745;DHT22;61387;48.112;8.616;2023-03-14T04:46:17;7.60;99.90
27745;DHT22;61387;48.112;8.616;2023-03-14T04:48:42;7.70;99.90
27745;DHT22;61387;48.112;8.616;2023-03-14T04:51:08;7.70;99.90
27745;DHT22;61387;48.112;8.616;2023-03-14T04:53:33;7.70;99.90
27745;DHT22;61387;48.112;8.616;2023-03-14T04:55:59;7.70;99.90
27745;DHT22;61387;48.112;8.616;2023-03-14T04:58:25;7.60;99.90
27745;DHT22;61387;48.112;8.616;2023-03-14T05:00:50;7.60;99.90
27745;DHT22;61387;48.112;8.616;2023-03-14T05:03:17;7.60;99.90
27745;DHT22;61387;48.112;8.616;2023-03-14T05:05:43;7.60;99.90
27745;DHT22;61387;48.112;8.616;2023-03-14T05:10:34;7.60;99.90
27745;DHT22;61387;48.112;8.616;2023-03-14T05:15:26;7.60;99.90
27745;DHT22;61387;48.112;8.616;2023-03-14T05:17:51;7.50;99.90
27745;DHT22;61387;48.112;8.616;2023-03-14T05:20:18;7.40;99.90
27745;DHT22;61387;48.112;8.616;2023-03-14T05:22:43;7.40;99.90
27745;DHT22;61387;48.112;8.616;2023-03-14T05:25:09;7.40;99.90
27745;DHT22;61387;48.112;8.616;2023-03-14T05:27:35;7.40;99.90
27745;DHT22;61387;48.112;8.616;2023-03-14T05:30:02;7.40;99.90
27745;DHT22;61387;48.112;8.616;2023-03-14T05:32:28;7.40;99.90
27745;DHT22;61387;48.112;8.616;2023-03-14T05:34:54;7.40;99.90
27745;DHT22;61387;48.112;8.616;2023-03-14T05:39:49;7.40;99.90
27745;DHT22;61387;48.112;8.616;2023-03-14T05:42:14;7.50;99.90
27745;DHT22;61387;48.112;8.616;2023-03-14T05:44:40;7.50;99.90
27745;DHT22;61387;48.112;8.616;2023-03-14T05:47:05;7.50;99.90
27745;DHT22;61387;48.112;8.616;2023-03-14T05:49:31;7.50;99.90
27745;DHT22;61387;48.112;8.616;2023-03-14T05:59:14;7.40;99.90
27745;DHT22;61387;48.112;8.616;2023-03-14T06:01:40;7.40;99.90
27745;DHT22;61387;48.112;8.616;2023-03-14T06:04:06;7.30;99.90
27745;DHT22;61387;48.112;8.616;2023-03-14T06:06:31;7.40;99.90
27745;DHT22;61387;48.112;8.616;2023-03-14T06:08:57;7.30;99.90
27745;DHT22;61387;48.112;8.616;2023-03-14T06:11:22;7.30;99.90
27745;DHT22;61387;48.112;8.616;2023-03-14T06:13:48;7.30;99.90
27745;DHT22;61387;48.112;8.616;2023-03-14T06:16:13;7.30;99.90
27745;DHT22;61387;48.112;8.616;2023-03-14T06:18:39;7.30;99.90
27745;DHT22;61387;48.112;8.616;2023-03-14T06:21:05;7.30;99.90
27745;DHT22;61387;48.112;8.616;2023-03-14T06:23:31;7.30;99.90
27745;DHT22;61387;48.112;8.616;2023-03-14T06:28:23;7.30;99.90
27745;DHT22;61387;48.112;8.616;2023-03-14T06:30:48;7.40;99.90
27745;DHT22;61387;48.112;8.616;2023-03-14T06:33:14;7.40;99.90
27745;DHT22;61387;48.112;8.616;2023-03-14T06:35:39;7.40;99.90
27745;DHT22;61387;48.112;8.616;2023-03-14T06:38:05;7.50;99.90
27745;DHT22;61387;48.112;8.616;2023-03-14T06:42:56;7.50;99.90
27745;DHT22;61387;48.112;8.616;2023-03-14T06:50:14;7.60;99.90
27745;DHT22;61387;48.112;8.616;2023-03-14T06:52:40;7.60;99.90
27745;DHT22;61387;48.112;8.616;2023-03-14T06:57:37;7.70;99.90
27745;DHT22;61387;48.112;8.616;2023-03-14T07:00:04;7.70;99.90
27745;DHT22;61387;48.112;8.616;2023-03-14T07:02:30;7.70;99.90
27745;DHT22;61387;48.112;8.616;2023-03-14T07:07:21;7.80;99.90
27745;DHT22;61387;48.112;8.616;2023-03-14T07:09:47;7.80;99.90
27745;DHT22;61387;48.112;8.616;2023-03-14T07:12:12;7.80;99.90
27745;DHT22;61387;48.112;8.616;2023-03-14T07:14:38;7.80;99.90
27745;DHT22;61387;48.112;8.616;2023-03-14T07:17:04;7.90;99.90
27745;DHT22;61387;48.112;8.616;2023-03-14T07:19:29;7.90;99.90
27745;DHT22;61387;48.112;8.616;2023-03-14T07:21:55;7.90;99.90
27745;DHT22;61387;48.112;8.616;2023-03-14T07:24:20;8.00;99.90
27745;DHT22;61387;48.112;8.616;2023-03-14T07:26:46;8.10;99.90
27745;DHT22;61387;48.112;8.616;2023-03-14T07:29:11;8.10;99.90
27745;DHT22;61387;48.112;8.616;2023-03-14T07:31:37;8.10;99.90
27745;DHT22;61387;48.112;8.616;2023-03-14T07:34:02;8.20;99.90
27745;DHT22;61387;48.112;8.616;2023-03-14T07:36:28;8.30;99.90
27745;DHT22;61387;48.112;8.616;2023-03-14T07:38:53;8.50;99.90
27745;DHT22;61387;48.112;8.616;2023-03-14T07:41:19;8.60;99.90
27745;DHT22;61387;48.112;8.616;2023-03-14T07:43:59;8.70;99.90
27745;DHT22;61387;48.112;8.616;2023-03-14T07:46:24;8.80;99.90
27745;DHT22;61387;48.112;8.616;2023-03-14T07:48:50;8.90;99.90
27745;DHT22;61387;48.112;8.616;2023-03-14T07:51:15;9.90;99.90
27745;DHT22;61387;48.112;8.616;2023-03-14T07:53:41;9.20;99.90
27745;DHT22;61387;48.112;8.616;2023-03-14T07:56:08;9.40;99.90
27745;DHT22;61387;48.112;8.616;2023-03-14T07:58:34;9.80;99.90
27745;DHT22;61387;48.112;8.616;2023-03-14T08:03:25;9.80;99.90
27745;DHT22;61387;48.112;8.616;2023-03-14T08:15:51;10.40;99.90
27745;DHT22;61387;48.112;8.616;2023-03-14T08:18:16;10.40;99.90
27745;DHT22;61387;48.112;8.616;2023-03-14T08:20:42;10.40;99.90
27745;DHT22;61387;48.112;8.616;2023-03-14T08:23:07;10.20;99.90
27745;DHT22;61387;48.112;8.616;2023-03-14T08:25:33;10.10;99.90
27745;DHT22;61387;48.112;8.616;2023-03-14T08:27:59;10.10;99.90
27745;DHT22;61387;48.112;8.616;2023-03-14T08:30:25;10.10;99.90
27745;DHT22;61387;48.112;8.616;2023-03-14T08:32:50;10.10;99.90
27745;DHT22;61387;48.112;8.616;2023-03-14T08:35:16;10.20;99.90
27745;DHT22;61387;48.112;8.616;2023-03-14T08:40:08;10.10;99.90
27745;DHT22;61387;48.112;8.616;2023-03-14T08:42:36;10.10;99.90
27745;DHT22;61387;48.112;8.616;2023-03-14T08:45:01;9.90;99.90
27745;DHT22;61387;48.112;8.616;2023-03-14T08:47:27;9.80;99.90
27745;DHT22;61387;48.112;8.616;2023-03-14T08:49:53;9.70;99.90
27745;DHT22;61387;48.112;8.616;2023-03-14T08:54:44;9.70;99.90
27745;DHT22;61387;48.112;8.616;2023-03-14T08:57:10;9.60;99.90
27745;DHT22;61387;48.112;8.616;2023-03-14T08:59:40;9.70;99.90
27745;DHT22;61387;48.112;8.616;2023-03-14T09:02:05;9.70;99.90
27745;DHT22;61387;48.112;8.616;2023-03-14T09:04:32;9.70;99.90
27745;DHT22;61387;48.112;8.616;2023-03-14T09:09:24;9.80;99.90
27745;DHT22;61387;48.112;8.616;2023-03-14T09:11:52;9.70;99.90
27745;DHT22;61387;48.112;8.616;2023-03-14T09:14:17;9.70;99.90
27745;DHT22;61387;48.112;8.616;2023-03-14T09:16:43;9.60;99.90
27745;DHT22;61387;48.112;8.616;2023-03-14T09:19:08;9.60;99.90
27745;DHT22;61387;48.112;8.616;2023-03-14T09:21:34;9.60;99.90
27745;DHT22;61387;48.112;8.616;2023-03-14T09:23:59;9.60;99.90
27745;DHT22;61387;48.112;8.616;2023-03-14T09:26:25;9.70;99.90
27745;DHT22;61387;48.112;8.616;2023-03-14T09:28:50;9.70;99.90
27745;DHT22;61387;48.112;8.616;2023-03-14T09:31:16;9.70;99.90
27745;DHT22;61387;48.112;8.616;2023-03-14T09:33:41;9.80;99.90
27745;DHT22;61387;48.112;8.616;2023-03-14T09:36:07;9.90;99.90
27745;DHT22;61387;48.112;8.616;2023-03-14T09:38:33;9.90;99.90
27745;DHT22;61387;48.112;8.616;2023-03-14T09:41:01;10.00;99.90
27745;DHT22;61387;48.112;8.616;2023-03-14T09:43:29;10.20;99.90
27745;DHT22;61387;48.112;8.616;2023-03-14T09:48:26;10.40;99.90
27745;DHT22;61387;48.112;8.616;2023-03-14T09:50:55;10.40;99.90
27745;DHT22;61387;48.112;8.616;2023-03-14T09:53:27;10.60;99.90
27745;DHT22;61387;48.112;8.616;2023-03-14T09:55:54;10.60;99.90
27745;DHT22;61387;48.112;8.616;2023-03-14T09:58:24;11.00;99.90
27745;DHT22;61387;48.112;8.616;2023-03-14T10:00:53;11.10;99.90
27745;DHT22;61387;48.112;8.616;2023-03-14T10:03:29;11.10;99.90
27745;DHT22;61387;48.112;8.616;2023-03-14T10:05:56;11.10;99.90
27745;DHT22;61387;48.112;8.616;2023-03-14T10:10:48;10.80;99.90
27745;DHT22;61387;48.112;8.616;2023-03-14T10:13:22;10.80;99.90
27745;DHT22;61387;48.112;8.616;2023-03-14T10:15:55;11.00;99.90
27745;DHT22;61387;48.112;8.616;2023-03-14T10:18:23;11.10;99.90
27745;DHT22;61387;48.112;8.616;2023-03-14T10:20:51;11.10;99.90
27745;DHT22;61387;48.112;8.616;2023-03-14T10:23:28;11.30;99.90
27745;DHT22;61387;48.112;8.616;2023-03-14T10:26:14;11.20;99.90
27745;DHT22;61387;48.112;8.616;2023-03-14T10:28:47;10.90;99.90
27745;DHT22;61387;48.112;8.616;2023-03-14T10:31:14;10.50;99.90
27745;DHT22;61387;48.112;8.616;2023-03-14T10:33:40;10.50;99.90
27745;DHT22;61387;48.112;8.616;2023-03-14T10:36:23;10.50;99.90
27745;DHT22;61387;48.112;8.616;2023-03-14T10:39:44;10.40;99.90
27745;DHT22;61387;48.112;8.616;2023-03-14T10:41:54;10.20;99.90
27745;DHT22;61387;48.112;8.616;2023-03-14T10:44:23;10.20;99.90
27745;DHT22;61387;48.112;8.616;2023-03-14T10:47:00;10.00;99.90
27745;DHT22;61387;48.112;8.616;2023-03-14T10:49:35;9.80;99.90
27745;DHT22;61387;48.112;8.616;2023-03-14T10:54:41;9.70;99.90
27745;DHT22;61387;48.112;8.616;2023-03-14T10:57:11;9.30;99.90
27745;DHT22;61387;48.112;8.616;2023-03-14T10:59:39;9.30;99.90
27745;DHT22;61387;48.112;8.616;2023-03-14T11:09:46;8.80;99.90
27745;DHT22;61387;48.112;8.616;2023-03-14T11:12:48;8.80;99.90
27745;DHT22;61387;48.112;8.616;2023-03-14T11:21:55;9.10;99.90
27745;DHT22;61387;48.112;8.616;2023-03-14T11:27:11;9.10;99.90
27745;DHT22;61387;48.112;8.616;2023-03-14T11:29:41;9.10;99.90
27745;DHT22;61387;48.112;8.616;2023-03-14T11:32:39;9.10;99.90
27745;DHT22;61387;48.112;8.616;2023-03-14T11:38:00;9.10;99.90
27745;DHT22;61387;48.112;8.616;2023-03-14T11:40:28;9.00;99.90
27745;DHT22;61387;48.112;8.616;2023-03-14T11:43:04;9.00;99.90
27745;DHT22;61387;48.112;8.616;2023-03-14T11:45:35;9.00;99.90
27745;DHT22;61387;48.112;8.616;2023-03-14T11:48:25;8.80;99.90
27745;DHT22;61387;48.112;8.616;2023-03-14T11:50:57;8.80;99.90
27745;DHT22;61387;48.112;8.616;2023-03-14T11:53:47;8.70;99.90
27745;DHT22;61387;48.112;8.616;2023-03-14T11:56:42;8.70;99.90
27745;DHT22;61387;48.112;8.616;2023-03-14T11:59:17;8.70;99.90
27745;DHT22;61387;48.112;8.616;2023-03-14T12:01:52;8.70;99.90
27745;DHT22;61387;48.112;8.616;2023-03-14T12:04:48;8.80;99.90
27745;DHT22;61387;48.112;8.616;2023-03-14T12:07:23;8.80;99.90
27745;DHT22;61387;48.112;8.616;2023-03-14T12:09:52;8.80;99.90
27745;DHT22;61387;48.112;8.616;2023-03-14T12:12:22;8.80;99.90
27745;DHT22;61387;48.112;8.616;2023-03-14T12:15:02;8.80;99.90
27745;DHT22;61387;48.112;8.616;2023-03-14T12:17:37;8.70;99.90
27745;DHT22;61387;48.112;8.616;2023-03-14T12:20:17;8.20;99.90
27745;DHT22;61387;48.112;8.616;2023-03-14T12:22:46;8.10;99.90
27745;DHT22;61387;48.112;8.616;2023-03-14T12:25:19;7.90;99.90
27745;DHT22;61387;48.112;8.616;2023-03-14T12:30:29;7.30;99.90
27745;DHT22;61387;48.112;8.616;2023-03-14T12:35:44;7.00;99.90
27745;DHT22;61387;48.112;8.616;2023-03-14T12:41:36;7.00;99.90
27745;DHT22;61387;48.112;8.616;2023-03-14T12:47:41;7.10;99.90
27745;DHT22;61387;48.112;8.616;2023-03-14T12:49:40;7.20;99.90
27745;DHT22;61387;48.112;8.616;2023-03-14T12:52:19;7.10;99.90
27745;DHT22;61387;48.112;8.616;2023-03-14T12:54:56;7.00;99.90
27745;DHT22;61387;48.112;8.616;2023-03-14T12:57:28;7.20;99.90
27745;DHT22;61387;48.112;8.616;2023-03-14T13:00:00;7.20;99.90
27745;DHT22;61387;48.112;8.616;2023-03-14T13:02:42;7.10;99.90
27745;DHT22;61387;48.112;8.616;2023-03-14T13:05:20;7.00;99.90
27745;DHT22;61387;48.112;8.616;2023-03-14T13:10:18;6.70;99.90
27745;DHT22;61387;48.112;8.616;2023-03-14T13:12:58;6.70;99.90
27745;DHT22;61387;48.112;8.616;2023-03-14T13:15:33;6.70;99.90
27745;DHT22;61387;48.112;8.616;2023-03-14T13:18:13;6.80;99.90
27745;DHT22;61387;48.112;8.616;2023-03-14T13:20:55;6.80;99.90
27745;DHT22;61387;48.112;8.616;2023-03-14T13:23:28;6.90;99.90
27745;DHT22;61387;48.112;8.616;2023-03-14T13:25:54;6.90;99.90
27745;DHT22;61387;48.112;8.616;2023-03-14T13:28:20;6.80;99.90
27745;DHT22;61387;48.112;8.616;2023-03-14T13:30:47;6.80;99.90
27745;DHT22;61387;48.112;8.616;2023-03-14T13:33:21;6.90;99.90
27745;DHT22;61387;48.112;8.616;2023-03-14T13:35:49;6.90;99.90
27745;DHT22;61387;48.112;8.616;2023-03-14T13:38:21;6.80;99.90
27745;DHT22;61387;48.112;8.616;2023-03-14T13:40:49;6.90;99.90
27745;DHT22;61387;48.112;8.616;2023-03-14T13:43:19;6.90;99.90
27745;DHT22;61387;48.112;8.616;2023-03-14T13:45:48;7.00;99.90
27745;DHT22;61387;48.112;8.616;2023-03-14T13:50:56;6.80;99.90
27745;DHT22;61387;48.112;8.616;2023-03-14T13:53:24;6.80;99.90
27745;DHT22;61387;48.112;8.616;2023-03-14T13:55:51;6.80;99.90
27745;DHT22;61387;48.112;8.616;2023-03-14T13:58:29;6.60;99.90
27745;DHT22;61387;48.112;8.616;2023-03-14T14:01:13;6.60;99.90
27745;DHT22;61387;48.112;8.616;2023-03-14T14:03:41;6.40;99.90
27745;DHT22;61387;48.112;8.616;2023-03-14T14:08:44;6.30;99.90
27745;DHT22;61387;48.112;8.616;2023-03-14T14:14:02;6.40;99.90
27745;DHT22;61387;48.112;8.616;2023-03-14T14:16:28;6.40;99.90
27745;DHT22;61387;48.112;8.616;2023-03-14T14:18:56;6.30;99.90
27745;DHT22;61387;48.112;8.616;2023-03-14T14:26:17;6.30;99.90
27745;DHT22;61387;48.112;8.616;2023-03-14T14:33:44;6.50;99.90
27745;DHT22;61387;48.112;8.616;2023-03-14T14:36:17;6.50;99.90
27745;DHT22;61387;48.112;8.616;2023-03-14T14:38:49;6.40;99.90
27745;DHT22;61387;48.112;8.616;2023-03-14T14:41:15;6.50;99.90
27745;DHT22;61387;48.112;8.616;2023-03-14T14:46:08;6.60;99.90
27745;DHT22;61387;48.112;8.616;2023-03-14T14:48:37;6.60;99.90
27745;DHT22;61387;48.112;8.616;2023-03-14T14:51:06;6.60;99.90
27745;DHT22;61387;48.112;8.616;2023-03-14T14:53:42;6.80;99.90
27745;DHT22;61387;48.112;8.616;2023-03-14T14:56:19;6.90;99.90
27745;DHT22;61387;48.112;8.616;2023-03-14T14:58:48;6.90;99.90
27745;DHT22;61387;48.112;8.616;2023-03-14T15:01:23;6.90;99.90
27745;DHT22;61387;48.112;8.616;2023-03-14T15:03:53;7.00;99.90
27745;DHT22;61387;48.112;8.616;2023-03-14T15:08:47;7.20;99.90
27745;DHT22;61387;48.112;8.616;2023-03-14T15:11:20;7.20;99.90
27745;DHT22;61387;48.112;8.616;2023-03-14T15:13:48;7.00;99.90
27745;DHT22;61387;48.112;8.616;2023-03-14T15:16:16;6.90;99.90
27745;DHT22;61387;48.112;8.616;2023-03-14T15:18:42;6.90;99.90
27745;DHT22;61387;48.112;8.616;2023-03-14T15:21:09;7.00;99.90
27745;DHT22;61387;48.112;8.616;2023-03-14T15:26:01;7.00;99.90
27745;DHT22;61387;48.112;8.616;2023-03-14T15:28:28;7.10;99.90
27745;DHT22;61387;48.112;8.616;2023-03-14T15:30:57;7.30;99.90
27745;DHT22;61387;48.112;8.616;2023-03-14T15:33:24;7.20;99.90
27745;DHT22;61387;48.112;8.616;2023-03-14T15:35:50;7.30;99.90
27745;DHT22;61387;48.112;8.616;2023-03-14T15:38:18;7.50;99.90
27745;DHT22;61387;48.112;8.616;2023-03-14T15:40:49;7.50;99.90
27745;DHT22;61387;48.112;8.616;2023-03-14T15:48:11;7.50;99.90
27745;DHT22;61387;48.112;8.616;2023-03-14T15:50:37;7.40;99.90
27745;DHT22;61387;48.112;8.616;2023-03-14T15:53:03;7.30;99.90
27745;DHT22;61387;48.112;8.616;2023-03-14T15:55:29;7.10;99.90
27745;DHT22;61387;48.112;8.616;2023-03-14T15:57:54;7.10;99.90
27745;DHT22;61387;48.112;8.616;2023-03-14T16:00:20;7.10;99.90
27745;DHT22;61387;48.112;8.616;2023-03-14T16:02:49;7.00;99.90
27745;DHT22;61387;48.112;8.616;2023-03-14T16:05:16;7.10;99.90
27745;DHT22;61387;48.112;8.616;2023-03-14T16:07:43;7.30;99.90
27745;DHT22;61387;48.112;8.616;2023-03-14T16:10:10;7.30;99.90
27745;DHT22;61387;48.112;8.616;2023-03-14T16:12:36;7.80;99.90
27745;DHT22;61387;48.112;8.616;2023-03-14T16:15:03;8.50;99.90
27745;DHT22;61387;48.112;8.616;2023-03-14T16:17:28;8.70;99.90
27745;DHT22;61387;48.112;8.616;2023-03-14T16:22:20;7.90;99.90
27745;DHT22;61387;48.112;8.616;2023-03-14T16:24:45;7.90;99.90
27745;DHT22;61387;48.112;8.616;2023-03-14T16:27:11;7.80;99.90
27745;DHT22;61387;48.112;8.616;2023-03-14T16:29:37;7.70;99.90
27745;DHT22;61387;48.112;8.616;2023-03-14T16:32:03;7.50;99.90
27745;DHT22;61387;48.112;8.616;2023-03-14T16:34:28;7.50;99.90
27745;DHT22;61387;48.112;8.616;2023-03-14T16:36:54;7.40;99.90
27745;DHT22;61387;48.112;8.616;2023-03-14T16:39:20;7.40;99.90
27745;DHT22;61387;48.112;8.616;2023-03-14T16:44:11;7.20;99.90
27745;DHT22;61387;48.112;8.616;2023-03-14T16:46:37;7.10;99.90
27745;DHT22;61387;48.112;8.616;2023-03-14T16:49:04;7.00;99.90
27745;DHT22;61387;48.112;8.616;2023-03-14T16:51:29;6.90;99.90
27745;DHT22;61387;48.112;8.616;2023-03-14T16:53:55;6.90;99.90
27745;DHT22;61387;48.112;8.616;2023-03-14T16:56:21;6.80;99.90
27745;DHT22;61387;48.112;8.616;2023-03-14T16:58:48;6.80;99.90
27745;DHT22;61387;48.112;8.616;2023-03-14T17:01:15;6.70;99.90
27745;DHT22;61387;48.112;8.616;2023-03-14T17:03:44;6.70;99.90
27745;DHT22;61387;48.112;8.616;2023-03-14T17:06:12;6.60;99.90
27745;DHT22;61387;48.112;8.616;2023-03-14T17:11:04;6.60;99.90
27745;DHT22;61387;48.112;8.616;2023-03-14T17:13:29;6.60;99.90
27745;DHT22;61387;48.112;8.616;2023-03-14T17:15:56;6.60;99.90
27745;DHT22;61387;48.112;8.616;2023-03-14T17:18:24;6.50;99.90
27745;DHT22;61387;48.112;8.616;2023-03-14T17:20:53;6.50;99.90
27745;DHT22;61387;48.112;8.616;2023-03-14T17:23:20;6.50;99.90
27745;DHT22;61387;48.112;8.616;2023-03-14T17:25:47;6.40;99.90
27745;DHT22;61387;48.112;8.616;2023-03-14T17:33:07;6.00;99.90
27745;DHT22;61387;48.112;8.616;2023-03-14T17:35:32;5.50;99.90
27745;DHT22;61387;48.112;8.616;2023-03-14T17:37:58;5.30;99.90
27745;DHT22;61387;48.112;8.616;2023-03-14T17:42:50;5.20;99.90
27745;DHT22;61387;48.112;8.616;2023-03-14T17:45:16;5.00;99.90
27745;DHT22;61387;48.112;8.616;2023-03-14T17:50:09;4.70;99.90
27745;DHT22;61387;48.112;8.616;2023-03-14T17:52:35;4.70;99.90
27745;DHT22;61387;48.112;8.616;2023-03-14T17:55:04;4.70;99.90
27745;DHT22;61387;48.112;8.616;2023-03-14T17:57:30;4.70;99.90
27745;DHT22;61387;48.112;8.616;2023-03-14T17:59:56;4.70;99.90
27745;DHT22;61387;48.112;8.616;2023-03-14T18:02:23;4.70;99.90
27745;DHT22;61387;48.112;8.616;2023-03-14T18:04:49;4.70;99.90
27745;DHT22;61387;48.112;8.616;2023-03-14T18:07:18;4.70;99.90
27745;DHT22;61387;48.112;8.616;2023-03-14T18:09:45;4.60;99.90
27745;DHT22;61387;48.112;8.616;2023-03-14T18:12:10;4.60;99.90
27745;DHT22;61387;48.112;8.616;2023-03-14T18:14:36;4.50;99.90
27745;DHT22;61387;48.112;8.616;2023-03-14T18:17:02;4.40;99.90
27745;DHT22;61387;48.112;8.616;2023-03-14T18:19:28;4.40;99.90
27745;DHT22;61387;48.112;8.616;2023-03-14T18:21:54;4.40;99.90
27745;DHT22;61387;48.112;8.616;2023-03-14T18:24:20;4.40;99.90
27745;DHT22;61387;48.112;8.616;2023-03-14T18:26:46;4.40;99.90
27745;DHT22;61387;48.112;8.616;2023-03-14T18:29:12;4.40;99.90
27745;DHT22;61387;48.112;8.616;2023-03-14T18:31:42;4.40;99.90
27745;DHT22;61387;48.112;8.616;2023-03-14T18:34:09;4.40;99.90
27745;DHT22;61387;48.112;8.616;2023-03-14T18:36:36;4.40;99.90
27745;DHT22;61387;48.112;8.616;2023-03-14T18:39:02;4.40;99.90
27745;DHT22;61387;48.112;8.616;2023-03-14T18:43:56;4.40;99.90
27745;DHT22;61387;48.112;8.616;2023-03-14T18:48:48;4.50;99.90
27745;DHT22;61387;48.112;8.616;2023-03-14T18:51:22;4.50;99.90
27745;DHT22;61387;48.112;8.616;2023-03-14T18:53:48;4.50;99.90
27745;DHT22;61387;48.112;8.616;2023-03-14T18:56:13;4.50;99.90
27745;DHT22;61387;48.112;8.616;2023-03-14T19:01:05;4.50;99.90
27745;DHT22;61387;48.112;8.616;2023-03-14T19:03:33;4.50;99.90
27745;DHT22;61387;48.112;8.616;2023-03-14T19:05:59;4.50;99.90
27745;DHT22;61387;48.112;8.616;2023-03-14T19:08:26;4.30;99.90
27745;DHT22;61387;48.112;8.616;2023-03-14T19:10:54;4.30;99.90